sensor_id;sensor_type;location;lat;lon;timestamp;P1;durP1;ratioP1;P2;durP2;ratioP2
27979;SDS011;15315;50.836;4.430;2022-10-16T00:09:32;3.45;;;1.20;;
27979;SDS011;15315;50.836;4.430;2022-10-16T00:19:32;3.47;;;0.90;;
27979;SDS011;15315;50.836;4.430;2022-10-16T00:29:33;4.95;;;1.17;;
27979;SDS011;15315;50.836;4.430;2022-10-16T00:39:33;4.18;;;1.02;;
27979;SDS011;15315;50.836;4.430;2022-10-16T00:49:33;3.67;;;1.30;;
27979;SDS011;15315;50.836;4.430;2022-10-16T00:59:40;3.40;;;1.13;;
27979;SDS011;15315;50.836;4.430;2022-10-16T01:20:03;4.85;;;1.98;;
27979;SDS011;15315;50.836;4.430;2022-10-16T01:30:04;2.78;;;1.50;;
27979;SDS011;15315;50.836;4.430;2022-10-16T01:40:09;4.75;;;1.25;;
27979;SDS011;15315;50.836;4.430;2022-10-16T01:50:10;6.28;;;1.55;;
27979;SDS011;15315;50.836;4.430;2022-10-16T02:00:12;5.47;;;1.50;;
27979;SDS011;15315;50.836;4.430;2022-10-16T02:10:14;7.55;;;1.90;;
27979;SDS011;15315;50.836;4.430;2022-10-16T02:20:14;2.35;;;1.60;;
27979;SDS011;15315;50.836;4.430;2022-10-16T02:30:23;3.75;;;1.58;;
27979;SDS011;15315;50.836;4.430;2022-10-16T02:40:25;5.47;;;1.50;;
27979;SDS011;15315;50.836;4.430;2022-10-16T02:50:26;4.93;;;1.65;;
27979;SDS011;15315;50.836;4.430;2022-10-16T03:00:26;2.95;;;1.60;;
27979;SDS011;15315;50.836;4.430;2022-10-16T03:10:27;4.07;;;1.60;;
27979;SDS011;15315;50.836;4.430;2022-10-16T03:20:27;8.05;;;2.40;;
27979;SDS011;15315;50.836;4.430;2022-10-16T03:30:27;2.95;;;1.92;;
27979;SDS011;15315;50.836;4.430;2022-10-16T03:40:28;3.95;;;1.83;;
27979;SDS011;15315;50.836;4.430;2022-10-16T03:50:28;2.95;;;1.70;;
27979;SDS011;15315;50.836;4.430;2022-10-16T04:00:29;7.93;;;2.10;;
27979;SDS011;15315;50.836;4.430;2022-10-16T04:10:29;4.65;;;2.00;;
27979;SDS011;15315;50.836;4.430;2022-10-16T04:20:29;8.88;;;1.80;;
27979;SDS011;15315;50.836;4.430;2022-10-16T04:30:30;4.22;;;2.17;;
27979;SDS011;15315;50.836;4.430;2022-10-16T04:40:30;5.13;;;1.95;;
27979;SDS011;15315;50.836;4.430;2022-10-16T04:50:36;5.57;;;1.73;;
27979;SDS011;15315;50.836;4.430;2022-10-16T05:00:36;6.70;;;2.05;;
27979;SDS011;15315;50.836;4.430;2022-10-16T05:10:38;4.80;;;2.00;;
27979;SDS011;15315;50.836;4.430;2022-10-16T05:20:38;6.80;;;2.10;;
27979;SDS011;15315;50.836;4.430;2022-10-16T05:30:38;5.28;;;1.80;;
27979;SDS011;15315;50.836;4.430;2022-10-16T05:40:39;8.00;;;2.15;;
27979;SDS011;15315;50.836;4.430;2022-10-16T05:50:39;14.65;;;2.80;;
27979;SDS011;15315;50.836;4.430;2022-10-16T06:00:39;7.28;;;2.55;;
27979;SDS011;15315;50.836;4.430;2022-10-16T06:10:40;6.35;;;3.00;;
27979;SDS011;15315;50.836;4.430;2022-10-16T06:20:40;7.30;;;2.50;;
27979;SDS011;15315;50.836;4.430;2022-10-16T06:30:40;8.10;;;2.83;;
27979;SDS011;15315;50.836;4.430;2022-10-16T06:40:41;6.45;;;2.35;;
27979;SDS011;15315;50.836;4.430;2022-10-16T06:50:41;3.80;;;2.10;;
27979;SDS011;15315;50.836;4.430;2022-10-16T07:00:41;5.88;;;2.40;;
27979;SDS011;15315;50.836;4.430;2022-10-16T07:10:41;10.95;;;2.33;;
27979;SDS011;15315;50.836;4.430;2022-10-16T07:20:42;8.88;;;2.30;;
27979;SDS011;15315;50.836;4.430;2022-10-16T07:30:42;7.25;;;2.38;;
27979;SDS011;15315;50.836;4.430;2022-10-16T07:40:42;6.32;;;1.88;;
27979;SDS011;15315;50.836;4.430;2022-10-16T07:50:43;6.40;;;2.00;;
27979;SDS011;15315;50.836;4.430;2022-10-16T08:00:43;6.30;;;1.90;;
27979;SDS011;15315;50.836;4.430;2022-10-16T08:10:43;7.57;;;2.53;;
27979;SDS011;15315;50.836;4.430;2022-10-16T08:20:44;5.88;;;2.28;;
27979;SDS011;15315;50.836;4.430;2022-10-16T08:30:44;4.07;;;1.65;;
27979;SDS011;15315;50.836;4.430;2022-10-16T08:40:45;6.80;;;2.17;;
27979;SDS011;15315;50.836;4.430;2022-10-16T08:50:47;6.35;;;1.80;;
27979;SDS011;15315;50.836;4.430;2022-10-16T09:00:53;7.88;;;1.85;;
27979;SDS011;15315;50.836;4.430;2022-10-16T09:10:58;6.63;;;1.92;;
27979;SDS011;15315;50.836;4.430;2022-10-16T09:31:00;10.57;;;1.75;;
27979;SDS011;15315;50.836;4.430;2022-10-16T09:41:02;5.60;;;1.60;;
27979;SDS011;15315;50.836;4.430;2022-10-16T09:51:03;6.20;;;1.55;;
27979;SDS011;15315;50.836;4.430;2022-10-16T10:01:04;5.13;;;1.63;;
27979;SDS011;15315;50.836;4.430;2022-10-16T10:11:04;11.48;;;2.40;;
27979;SDS011;15315;50.836;4.430;2022-10-16T10:21:04;9.82;;;2.40;;
27979;SDS011;15315;50.836;4.430;2022-10-16T10:31:25;7.68;;;1.83;;
27979;SDS011;15315;50.836;4.430;2022-10-16T10:51:42;4.80;;;1.67;;
27979;SDS011;15315;50.836;4.430;2022-10-16T11:01:59;9.35;;;1.63;;
27979;SDS011;15315;50.836;4.430;2022-10-16T11:12:12;7.35;;;2.05;;
27979;SDS011;15315;50.836;4.430;2022-10-16T11:32:47;9.52;;;1.95;;
27979;SDS011;15315;50.836;4.430;2022-10-16T11:42:51;5.70;;;1.48;;
27979;SDS011;15315;50.836;4.430;2022-10-16T12:13:00;3.95;;;1.25;;
27979;SDS011;15315;50.836;4.430;2022-10-16T12:23:01;2.63;;;0.95;;
27979;SDS011;15315;50.836;4.430;2022-10-16T12:33:03;6.82;;;1.45;;
27979;SDS011;15315;50.836;4.430;2022-10-16T12:43:12;2.92;;;1.00;;
27979;SDS011;15315;50.836;4.430;2022-10-16T12:53:23;5.38;;;1.80;;
27979;SDS011;15315;50.836;4.430;2022-10-16T13:23:56;7.00;;;1.70;;
27979;SDS011;15315;50.836;4.430;2022-10-16T13:33:58;3.03;;;0.95;;
27979;SDS011;15315;50.836;4.430;2022-10-16T13:43:59;5.32;;;1.10;;
27979;SDS011;15315;50.836;4.430;2022-10-16T13:54:00;3.78;;;1.17;;
27979;SDS011;15315;50.836;4.430;2022-10-16T14:04:04;5.15;;;1.60;;
27979;SDS011;15315;50.836;4.430;2022-10-16T14:14:05;5.97;;;1.20;;
27979;SDS011;15315;50.836;4.430;2022-10-16T14:34:25;7.03;;;1.80;;
27979;SDS011;15315;50.836;4.430;2022-10-16T14:44:36;7.82;;;2.65;;
27979;SDS011;15315;50.836;4.430;2022-10-16T14:54:39;7.43;;;1.77;;
27979;SDS011;15315;50.836;4.430;2022-10-16T15:04:39;5.97;;;2.28;;
27979;SDS011;15315;50.836;4.430;2022-10-16T15:14:40;8.98;;;2.30;;
27979;SDS011;15315;50.836;4.430;2022-10-16T15:24:40;9.48;;;2.10;;
27979;SDS011;15315;50.836;4.430;2022-10-16T15:34:40;5.97;;;2.28;;
27979;SDS011;15315;50.836;4.430;2022-10-16T15:44:40;5.97;;;1.95;;
27979;SDS011;15315;50.836;4.430;2022-10-16T15:54:41;7.43;;;2.10;;
27979;SDS011;15315;50.836;4.430;2022-10-16T16:04:41;8.15;;;2.53;;
27979;SDS011;15315;50.836;4.430;2022-10-16T16:14:41;7.18;;;3.10;;
27979;SDS011;15315;50.836;4.430;2022-10-16T16:24:42;9.55;;;4.18;;
27979;SDS011;15315;50.836;4.430;2022-10-16T16:34:42;10.20;;;3.65;;
27979;SDS011;15315;50.836;4.430;2022-10-16T16:44:43;10.35;;;3.45;;
27979;SDS011;15315;50.836;4.430;2022-10-16T16:54:43;8.10;;;4.68;;
27979;SDS011;15315;50.836;4.430;2022-10-16T17:04:44;10.07;;;3.65;;
27979;SDS011;15315;50.836;4.430;2022-10-16T17:14:45;16.02;;;5.68;;
27979;SDS011;15315;50.836;4.430;2022-10-16T17:24:47;9.38;;;3.95;;
27979;SDS011;15315;50.836;4.430;2022-10-16T17:34:49;13.83;;;3.07;;
27979;SDS011;15315;50.836;4.430;2022-10-16T17:44:49;9.20;;;4.47;;
27979;SDS011;15315;50.836;4.430;2022-10-16T17:54:50;12.27;;;6.25;;
27979;SDS011;15315;50.836;4.430;2022-10-16T18:04:51;15.55;;;7.43;;
27979;SDS011;15315;50.836;4.430;2022-10-16T18:14:51;15.95;;;6.60;;
27979;SDS011;15315;50.836;4.430;2022-10-16T18:24:54;10.05;;;5.90;;
27979;SDS011;15315;50.836;4.430;2022-10-16T18:34:57;12.65;;;7.30;;
27979;SDS011;15315;50.836;4.430;2022-10-16T18:44:57;8.82;;;4.90;;
27979;SDS011;15315;50.836;4.430;2022-10-16T18:54:57;8.43;;;5.03;;
27979;SDS011;15315;50.836;4.430;2022-10-16T19:04:58;14.00;;;7.80;;
27979;SDS011;15315;50.836;4.430;2022-10-16T19:14:58;21.95;;;7.50;;
27979;SDS011;15315;50.836;4.430;2022-10-16T19:24:59;19.75;;;8.48;;
27979;SDS011;15315;50.836;4.430;2022-10-16T19:34:59;14.25;;;7.93;;
27979;SDS011;15315;50.836;4.430;2022-10-16T19:44:59;15.65;;;6.80;;
27979;SDS011;15315;50.836;4.430;2022-10-16T19:55:00;26.63;;;15.95;;
27979;SDS011;15315;50.836;4.430;2022-10-16T20:05:00;24.30;;;15.23;;
27979;SDS011;15315;50.836;4.430;2022-10-16T20:15:01;23.02;;;14.32;;
27979;SDS011;15315;50.836;4.430;2022-10-16T20:25:02;14.30;;;9.18;;
27979;SDS011;15315;50.836;4.430;2022-10-16T20:35:03;16.58;;;11.38;;
27979;SDS011;15315;50.836;4.430;2022-10-16T20:45:03;15.60;;;10.32;;
27979;SDS011;15315;50.836;4.430;2022-10-16T20:55:04;36.85;;;17.20;;
27979;SDS011;15315;50.836;4.430;2022-10-16T21:05:04;25.48;;;14.15;;
27979;SDS011;15315;50.836;4.430;2022-10-16T21:15:05;15.65;;;9.90;;
27979;SDS011;15315;50.836;4.430;2022-10-16T21:25:06;16.60;;;10.48;;
27979;SDS011;15315;50.836;4.430;2022-10-16T21:35:06;15.13;;;10.40;;
27979;SDS011;15315;50.836;4.430;2022-10-16T21:45:07;17.42;;;11.45;;
27979;SDS011;15315;50.836;4.430;2022-10-16T21:55:07;17.48;;;10.93;;
27979;SDS011;15315;50.836;4.430;2022-10-16T22:05:08;20.70;;;10.98;;
27979;SDS011;15315;50.836;4.430;2022-10-16T22:15:08;21.25;;;11.38;;
27979;SDS011;15315;50.836;4.430;2022-10-16T22:25:09;15.77;;;9.77;;
27979;SDS011;15315;50.836;4.430;2022-10-16T22:35:09;17.95;;;9.95;;
27979;SDS011;15315;50.836;4.430;2022-10-16T22:45:10;12.75;;;9.00;;
27979;SDS011;15315;50.836;4.430;2022-10-16T22:55:11;15.90;;;8.52;;
27979;SDS011;15315;50.836;4.430;2022-10-16T23:05:11;12.77;;;8.65;;
27979;SDS011;15315;50.836;4.430;2022-10-16T23:15:11;10.25;;;7.72;;
27979;SDS011;15315;50.836;4.430;2022-10-16T23:25:11;12.52;;;8.60;;
27979;SDS011;15315;50.836;4.430;2022-10-16T23:35:12;15.40;;;8.43;;
27979;SDS011;15315;50.836;4.430;2022-10-16T23:45:12;14.30;;;9.00;;
27979;SDS011;15315;50.836;4.430;2022-10-16T23:55:12;11.65;;;9.10;;
